Station: Robe Airport  

  Atmospheric Gas Attenuation - ITU Rec 676-11   ----------------- dB/100km -----------------
Date Time Temp RH % AH g/m3 Dew Point Wind Direction Speed kph Gust kph Barometer mB Rainfall Since 9am 24GHz 47GHz 76GHz 122GHz 134GHz 241GHz
07/05 10:20 13.6 62 7.3 6.4 26 32 1028.5 0 16.8 24.4 35.4 92.5 82.9 284.1
07/05 10:10 13.3 63 7.28 6.4 22 28 1028.4 0 16.8 24.5 35.5 92.7 83.0 284.2
07/05 10:00 13.1 61 6.96 5.8 26 39 1028.5 0 16.1 24.1 34.3 89.6 79.1 270.7
07/05 09:50 14 57 6.88 5.6 24 32 1028.3 0 15.9 23.7 33.6 87.8 77.2 264.1
07/05 09:40 13.7 59 6.99 5.8 22 30 1028.3 0 16.2 23.9 34.2 89.2 78.9 269.9
07/05 09:30 13.8 55 6.55 4.9 26 39 1028.2 0 15.2 23.2 32.5 84.7 73.3 250.3
07/05 09:20 13.8 54 6.43 4.6 30 33 1028.1 0 15.0 23.0 32.0 83.5 71.8 245.1
07/05 09:10 13.6 52 6.12 3.9 28 30 1028 0 14.3 22.6 31.0 80.6 68.2 232.4
07/05 09:00 13.4 55 6.39 4.6 30 39 1027.9 0 14.9 23.1 32.0 83.5 71.7 244.6
07/05 08:50 13.4 56 6.51 4.8 24 35 1027.9 1.2 15.2 23.3 32.5 84.7 73.1 249.8
07/05 08:40 13.1 51 5.82 3.4 30 35 1027.8 1.2 13.7 22.3 30.0 78.1 65.0 221.0
07/05 08:30 12.9 55 6.2 4.1 28 37 1027.7 1.2 14.5 22.9 31.5 82.1 69.8 237.8
07/05 08:20 12.5 56 6.16 3.9 30 35 1027.6 1.2 14.4 22.9 31.5 82.1 69.6 237.2
07/05 08:10 12.8 57 6.39 4.5 28 32 1027.5 1.2 14.9 23.2 32.2 84.1 72.2 246.3
07/05 08:00 12.5 60 6.6 5 24 35 1027.5 1.2 15.4 23.6 33.2 86.5 75.1 256.5
07/05 07:50 12.1 58 6.22 4.1 28 37 1027.5 1.2 14.6 23.1 31.9 83.1 70.7 241.0
07/05 07:40 11.7 56 5.86 3.2 24 32 1027.3 1.2 13.8 22.7 30.7 79.8 66.6 226.5
07/05 07:30 11.5 59 6.1 3.8 26 35 1027.3 1.2 14.4 23.1 31.7 82.5 69.7 237.5
07/05 07:20 11.3 61 6.22 4 30 37 1027.1 1.2 14.6 23.3 32.2 83.9 71.4 243.3
07/05 07:10 11.1 64 6.45 4.7 19 24 1027 1.2 15.1 23.7 33.1 86.4 74.5 254.2
07/05 07:00 10.8 68 6.72 5.1 22 39 1026.9 1.2 15.7 24.2 34.3 89.6 78.2 267.3
07/05 06:50 11.4 60 6.16 3.9 35 43 1026.7 1.2 14.5 23.2 31.9 83.1 70.5 240.3
07/05 06:40 11.3 56 5.71 2.8 20 28 1026.7 1.2 13.5 22.5 30.2 78.7 65.0 221.0
07/05 06:30 11.6 59 6.13 3.9 28 39 1026.6 1.2 14.4 23.1 31.7 82.6 70.0 238.4
07/05 06:20 11.3 56 5.71 2.8 20 24 1026.5 1.2 13.5 22.5 30.2 78.7 65.0 220.9
07/05 06:10 11.5 56 5.79 3 22 26 1026.4 1.2 13.7 22.6 30.5 79.3 65.8 223.8
07/05 06:00 11.4 55 5.65 2.7 24 33 1026.3 1.2 13.4 22.4 30.0 78.0 64.2 218.0
07/05 05:50 11.4 55 5.65 2.7 26 30 1026.2 1.2 13.4 22.4 30.0 78.0 64.2 218.0
07/05 05:40 11.1 60 6.04 3.6 24 32 1026.2 1.2 14.2 23.1 31.5 82.2 69.3 235.8
07/05 05:30 11 56 5.61 2.6 26 35 1026.1 1.2 13.3 22.4 30.0 77.9 64.0 217.3
07/05 05:20 11.2 58 5.88 3.2 28 35 1026.1 1.2 13.9 22.8 30.9 80.4 67.2 228.5
07/05 05:10 11.2 58 5.88 3.2 28 37 1026 1.2 13.9 22.8 30.9 80.4 67.2 228.5
07/05 05:00 11.5 51 5.27 1.7 26 39 1026 1.2 12.6 21.8 28.5 74.1 59.5 201.5
07/05 04:50 11.4 50 5.13 1.3 30 35 1025.8 1.2 12.3 21.6 28.0 72.8 57.8 195.7
07/05 04:40 10.9 50 4.97 0.9 22 26 1025.9 1.2 12.0 21.5 27.6 71.7 56.3 190.2
07/05 04:30 11.1 51 5.14 1.4 30 44 1025.9 1.2 12.3 21.7 28.2 73.2 58.2 196.9
07/05 04:20 11.2 50 5.07 1.1 35 43 1025.8 1.2 12.2 21.6 27.9 72.4 57.3 193.7
07/05 04:10 11.3 52 5.3 2 30 39 1025.6 1.2 12.7 21.9 28.7 74.5 59.9 203.2
07/05 04:00 11 51 5.11 1.3 30 41 1025.6 1.2 12.3 21.7 28.1 73.0 57.9 195.8
07/05 03:50 11.2 54 5.47 2.2 26 30 1025.6 1.2 13.0 22.2 29.3 76.3 62.1 210.7
07/05 03:40 11.1 53 5.34 1.9 32 41 1025.6 1.2 12.8 22.0 28.9 75.1 60.6 205.4
07/05 03:30 11 50 5.01 1 30 46 1025.5 1.2 12.1 21.5 27.7 72.0 56.7 191.6
07/05 03:20 10.9 48 4.78 0.3 30 35 1025.6 1.2 11.6 21.2 26.9 69.8 54.0 182.2
07/05 03:10 10.8 54 5.34 1.8 22 28 1025.6 1.2 12.8 22.1 29.0 75.4 60.8 206.1
07/05 03:00 11 52 5.21 1.5 30 39 1025.5 1.2 12.5 21.8 28.5 73.9 59.1 200.1
07/05 02:50 10.7 51 5.01 1 22 30 1025.5 1.2 12.1 21.6 27.8 72.2 56.9 192.3
07/05 02:40 10.8 54 5.34 1.8 28 35 1025.5 1.2 12.8 22.1 29.0 75.4 60.8 206.1
07/05 02:30 11.1 51 5.14 1.4 33 48 1025.5 1.2 12.3 21.7 28.2 73.2 58.2 196.8
07/05 02:20 10.7 49 4.81 0.4 28 33 1025.5 1.2 11.6 21.3 27.1 70.3 54.5 183.9
07/05 02:10 10.9 52 5.17 1.4 33 39 1025.4 1.2 12.4 21.8 28.3 73.6 58.7 198.6
07/05 02:00 10.9 58 5.77 3 32 46 1025.4 1.2 13.7 22.7 30.6 79.6 66.0 224.4
07/05 01:50 11.1 60 6.04 3.8 30 39 1025.3 1.2 14.2 23.0 31.5 82.1 69.2 235.6
07/05 01:40 11.3 57 5.82 3.1 30 33 1025.2 1.2 13.8 22.6 30.6 79.7 66.3 225.4
07/05 01:30 11.2 55 5.58 2.5 32 44 1025.2 1.2 13.3 22.3 29.7 77.4 63.4 215.3
07/05 01:20 11.2 56 5.68 2.7 24 28 1025.2 1.2 13.5 22.5 30.1 78.4 64.6 219.7
07/05 01:10 11 55 5.51 2.3 28 37 1025.2 1.2 13.1 22.3 29.6 76.9 62.7 212.9
07/05 01:00 11.1 50 5.04 1.1 35 46 1025.1 1.2 12.1 21.5 27.8 72.1 56.9 192.5
07/05 00:50 11.2 52 5.27 1.7 39 44 1025.1 1.2 12.6 21.8 28.6 74.3 59.6 202.0
07/05 00:40 11.1 52 5.24 1.6 39 44 1025.2 1.2 12.5 21.8 28.5 74.1 59.3 201.0
07/05 00:30 11.3 51 5.2 1.5 37 54 1025.1 1.2 12.5 21.7 28.3 73.5 58.7 198.8
07/05 00:20 11.1 53 5.34 1.9 35 41 1025 1.2 12.8 22.0 28.9 75.1 60.6 205.3
07/05 00:10 11.2 52 5.27 1.9 41 48 1024.8 1.2 12.6 21.8 28.6 74.3 59.6 202.0
07/05 00:00 11.3 55 5.61 2.6 35 52 1024.8 1.2 13.3 22.3 29.8 77.5 63.7 216.3
06/05 23:50 11.4 57 5.85 3.2 39 44 1024.8 1.2 13.8 22.7 30.7 79.8 66.6 226.4
06/05 23:40 11.2 60 6.08 3.7 28 35 1024.9 1.2 14.3 23.1 31.6 82.4 69.6 237.0
06/05 23:30 10.9 69 6.86 5.4 30 39 1024.8 1.2 16.0 24.3 34.7 90.7 79.8 272.8
06/05 23:20 10.2 71 6.76 5.3 32 41 1024.8 1.2 15.8 24.4 34.6 90.5 79.2 270.7
06/05 23:10 10.7 66 6.48 4.6 26 33 1024.9 1.2 15.2 23.8 33.3 87.0 75.1 256.3
06/05 23:00 11 62 6.21 4 30 43 1024.8 1 14.6 23.3 32.2 83.9 71.4 243.3
06/05 22:50 11.1 58 5.84 3.1 30 41 1025 1 13.8 22.7 30.7 80.0 66.7 226.8
06/05 22:40 10.9 53 5.27 1.7 28 39 1024.9 1 12.6 21.9 28.7 74.6 59.8 202.8
06/05 22:30 10.9 63 6.27 4.1 32 46 1024.9 1 14.7 23.4 32.4 84.6 72.3 246.3
06/05 22:20 11.3 63 6.43 4.5 33 41 1024.7 1 15.1 23.6 32.9 85.8 73.9 252.2
06/05 22:10 11.3 57 5.82 3.1 32 39 1024.7 1 13.8 22.6 30.6 79.6 66.3 225.3
06/05 22:00 10.5 70 6.79 5.3 32 48 1024.7 1 15.9 24.3 34.6 90.4 79.3 271.0
06/05 21:50 11 66 6.61 4.9 33 44 1024.6 1 15.5 23.9 33.7 88.0 76.5 261.1
06/05 21:40 11.6 54 5.61 2.6 30 37 1024.4 1 13.3 22.2 29.7 77.2 63.4 215.4
06/05 21:30 11.2 68 6.89 5.5 30 41 1024.3 1 16.0 24.3 34.7 90.6 79.9 273.0
06/05 21:20 11.3 68 6.94 5.6 28 35 1024.3 1 16.1 24.3 34.9 91.1 80.4 275.0
06/05 21:10 11.8 55 5.79 3 22 26 1024.2 1 13.7 22.4 30.3 78.8 65.4 222.6
06/05 21:00 12.3 51 5.54 2.5 32 46 1024 1 13.1 21.9 29.2 75.8 62.0 210.5
06/05 20:50 12.4 49 5.35 2.2 30 41 1023.9 1 12.7 21.6 28.4 73.9 59.6 202.2
06/05 20:40 11.8 59 6.21 4 30 35 1023.9 1 14.6 23.1 31.8 83.0 70.6 240.7
06/05 20:30 10.7 67 6.58 4.8 20 33 1024 1 15.4 23.9 33.7 87.9 76.3 260.7
06/05 20:20 10.9 66 6.57 4.8 24 28 1024.1 1 15.4 23.9 33.6 87.6 76.0 259.6
06/05 20:10 12.3 53 5.76 3 30 33 1023.8 1 13.6 22.3 30.0 78.0 64.6 219.8
06/05 20:00 12.3 52 5.65 2.7 24 37 1023.7 1 13.4 22.1 29.5 76.9 63.3 215.1
06/05 19:50 11.9 51 5.4 2.1 28 37 1023.6 1 12.9 21.8 28.8 74.8 60.6 205.5
06/05 19:40 11.8 52 5.47 2.2 32 43 1023.5 1 13.0 21.9 29.1 75.6 61.5 208.7
06/05 19:30 11.6 53 5.51 2.4 24 37 1023.5 1 13.1 22.0 29.3 76.1 62.1 211.0
06/05 19:20 11.4 58 5.95 3.4 28 35 1023.4 1 14.0 22.8 31.0 80.7 67.7 230.5
06/05 19:10 11.5 56 5.79 3 33 43 1023.3 1 13.7 22.5 30.3 79.0 65.6 223.2
06/05 19:00 11.5 58 5.99 3.5 32 50 1023.2 1 14.1 22.8 31.1 81.0 68.1 231.9
06/05 18:50 12 64 6.82 5.4 33 43 1023.1 1 15.9 23.9 34.0 88.9 78.1 266.9
06/05 18:40 12.2 55 5.94 3.4 20 28 1022.9 1 14.0 22.5 30.6 79.8 66.9 227.7
06/05 18:30 12 63 6.71 5.2 32 41 1022.8 1 15.6 23.7 33.6 87.7 76.7 261.9
06/05 18:20 11.8 64 6.74 5.2 32 43 1022.7 1 15.7 23.8 33.8 88.3 77.2 263.9
06/05 18:10 12.4 63 6.88 5.5 43 56 1022.4 1 16.0 23.9 34.1 89.0 78.4 268.1
06/05 18:00 12.8 53 5.94 3.5 30 43 1022.3 1 14.0 22.4 30.4 79.1 66.3 225.8
06/05 17:50 12.7 60 6.68 5.3 33 43 1022.2 1 15.5 23.5 33.2 86.6 75.6 258.2

Last Refresh: 07-May-2026 10:22:58

Bureau of Meteorology